createdAt,value
2024-01-17T00:00:22.175Z,10.60
2024-01-17T00:02:50.579Z,10.00
2024-01-17T00:05:18.853Z,10.00
2024-01-17T00:07:47.037Z,10.15
2024-01-17T00:10:15.322Z,11.25
2024-01-17T00:12:43.371Z,10.25
2024-01-17T00:15:11.992Z,11.35
2024-01-17T00:17:41.642Z,11.27
2024-01-17T00:20:10.681Z,10.23
2024-01-17T00:22:38.791Z,11.88
2024-01-17T00:25:09.888Z,11.30
2024-01-17T00:27:38.388Z,11.77
2024-01-17T00:30:08.054Z,11.35
2024-01-17T00:32:36.651Z,11.73
2024-01-17T00:35:06.883Z,11.40
2024-01-17T00:37:35.023Z,11.38
2024-01-17T00:40:03.231Z,11.35
2024-01-17T00:42:31.440Z,10.60
2024-01-17T00:45:00.264Z,11.82
2024-01-17T00:47:28.767Z,11.57
2024-01-17T00:49:57.033Z,11.23
2024-01-17T00:52:26.566Z,11.30
2024-01-17T00:54:54.764Z,11.65
2024-01-17T00:57:22.948Z,10.73
2024-01-17T00:59:51.228Z,11.13
2024-01-17T01:02:19.403Z,11.88
2024-01-17T01:04:47.791Z,10.30
2024-01-17T01:07:16.375Z,11.35
2024-01-17T01:09:46.080Z,11.73
2024-01-17T01:12:14.321Z,11.52
2024-01-17T01:14:42.664Z,11.50
2024-01-17T01:17:10.971Z,11.05
2024-01-17T01:19:39.164Z,11.85
2024-01-17T01:22:07.318Z,12.07
2024-01-17T01:24:35.463Z,11.27
2024-01-17T01:27:05.177Z,11.13
2024-01-17T01:29:33.362Z,11.52
2024-01-17T01:32:01.704Z,12.18
2024-01-17T01:34:29.831Z,11.90
2024-01-17T01:36:57.922Z,11.00
2024-01-17T01:39:26.117Z,12.13
2024-01-17T01:41:54.233Z,11.85
2024-01-17T01:44:23.884Z,11.18
2024-01-17T01:46:52.125Z,12.00
2024-01-17T01:49:23.383Z,11.18
2024-01-17T01:51:54.123Z,11.17
2024-01-17T01:54:24.353Z,10.63
2024-01-17T01:56:55.181Z,11.52
2024-01-17T01:59:57.704Z,10.93
2024-01-17T02:02:28.961Z,11.45
2024-01-17T02:05:05.024Z,10.88
2024-01-17T02:07:39.313Z,11.40
2024-01-17T02:10:12.803Z,12.07
2024-01-17T02:12:47.367Z,12.43
2024-01-17T02:15:17.717Z,12.00
2024-01-17T02:17:45.917Z,12.18
2024-01-17T02:20:14.812Z,12.20
2024-01-17T02:22:51.364Z,12.70
2024-01-17T02:25:20.932Z,12.50
2024-01-17T02:27:49.093Z,14.68
2024-01-17T02:30:17.898Z,12.68
2024-01-17T02:32:46.863Z,12.45
2024-01-17T02:35:15.414Z,12.23
2024-01-17T02:37:43.577Z,12.60
2024-01-17T02:40:11.838Z,12.45
2024-01-17T02:42:41.336Z,13.50
2024-01-17T02:45:10.124Z,12.70
2024-01-17T02:47:38.381Z,12.57
2024-01-17T02:50:07.313Z,14.13
2024-01-17T02:52:35.473Z,12.57
2024-01-17T02:55:05.613Z,13.70
2024-01-17T02:57:33.801Z,13.30
2024-01-17T03:00:03.434Z,14.10
2024-01-17T03:02:31.679Z,13.27
2024-01-17T03:04:59.922Z,14.27
2024-01-17T03:07:28.077Z,13.70
2024-01-17T03:09:56.392Z,14.68
2024-01-17T03:12:25.566Z,14.65
2024-01-17T03:14:54.081Z,15.90
2024-01-17T03:17:23.686Z,13.32
2024-01-17T03:19:51.894Z,14.20
2024-01-17T03:22:20.203Z,14.55
2024-01-17T03:24:48.437Z,14.02
2024-01-17T03:27:16.669Z,13.77
2024-01-17T03:29:44.839Z,13.95
2024-01-17T03:32:13.069Z,13.85
2024-01-17T03:34:42.565Z,14.13
2024-01-17T03:37:10.696Z,13.95
2024-01-17T03:39:38.892Z,13.90
2024-01-17T03:42:07.248Z,13.73
2024-01-17T03:44:35.514Z,13.13
2024-01-17T03:47:03.719Z,13.38
2024-01-17T03:49:31.905Z,12.68
2024-01-17T03:52:01.629Z,13.52
2024-01-17T03:54:29.809Z,14.45
2024-01-17T03:56:57.942Z,13.40
2024-01-17T03:59:26.126Z,13.18
2024-01-17T04:01:54.384Z,13.85
2024-01-17T04:04:22.761Z,14.10
2024-01-17T04:06:51.031Z,14.93
2024-01-17T04:09:20.585Z,15.95
2024-01-17T04:11:55.594Z,15.48
2024-01-17T04:14:24.086Z,14.70
2024-01-17T04:16:52.272Z,14.95
2024-01-17T04:19:20.652Z,15.15
2024-01-17T04:21:48.804Z,14.63
2024-01-17T04:24:16.985Z,15.88
2024-01-17T04:26:46.445Z,14.60
2024-01-17T04:29:14.580Z,15.18
2024-01-17T04:31:42.773Z,15.40
2024-01-17T04:34:11.278Z,14.82
2024-01-17T04:36:39.553Z,15.07
2024-01-17T04:39:07.997Z,15.80
2024-01-17T04:41:36.325Z,15.65
2024-01-17T04:44:06.528Z,15.95
2024-01-17T04:46:36.023Z,15.13
2024-01-17T04:49:04.280Z,14.70
2024-01-17T04:51:32.648Z,14.98
2024-01-17T04:54:00.229Z,14.75
2024-01-17T04:56:28.434Z,15.30
2024-01-17T04:58:56.567Z,13.55
2024-01-17T05:01:26.283Z,15.18
2024-01-17T05:03:54.438Z,13.93
2024-01-17T05:06:22.726Z,13.88
2024-01-17T05:08:51.344Z,14.65
2024-01-17T05:11:23.408Z,14.10
2024-01-17T05:13:53.525Z,14.73
2024-01-17T05:16:21.808Z,14.38
2024-01-17T05:18:51.639Z,15.07
2024-01-17T05:21:19.806Z,14.27
2024-01-17T05:23:48.163Z,14.27
2024-01-17T05:26:17.343Z,14.35
2024-01-17T05:28:45.503Z,14.85
2024-01-17T05:31:14.466Z,12.73
2024-01-17T05:33:42.682Z,13.82
2024-01-17T05:36:12.779Z,12.40
2024-01-17T05:38:41.051Z,13.00
2024-01-17T05:41:09.229Z,13.00
2024-01-17T05:43:37.491Z,13.02
2024-01-17T05:46:05.931Z,12.55
2024-01-17T05:48:34.381Z,12.15
2024-01-17T05:51:02.726Z,12.60
2024-01-17T05:53:32.390Z,12.63
2024-01-17T05:56:02.171Z,12.13
2024-01-17T05:58:31.866Z,11.63
2024-01-17T06:01:00.030Z,11.60
2024-01-17T06:03:28.462Z,11.98
2024-01-17T06:05:56.820Z,10.45
2024-01-17T06:08:25.724Z,10.93
2024-01-17T06:10:55.882Z,11.05
2024-01-17T06:13:24.118Z,10.95
2024-01-17T06:15:52.248Z,11.55
2024-01-17T06:18:20.493Z,12.32
2024-01-17T06:20:48.942Z,11.95
2024-01-17T06:23:17.122Z,11.35
2024-01-17T06:25:45.305Z,12.05
2024-01-17T06:28:14.875Z,11.75
2024-01-17T06:30:42.994Z,11.55
2024-01-17T06:33:11.657Z,12.15
2024-01-17T06:35:39.992Z,11.95
2024-01-17T06:38:08.334Z,11.63
2024-01-17T06:40:39.181Z,11.48
2024-01-17T06:45:38.695Z,10.50
2024-01-17T06:48:07.724Z,11.07
2024-01-17T06:50:36.225Z,11.10
2024-01-17T06:53:04.470Z,10.73
2024-01-17T06:55:32.644Z,11.40
2024-01-17T06:58:01.108Z,11.30
2024-01-17T07:00:32.897Z,11.60
2024-01-17T07:03:04.035Z,11.35
2024-01-17T07:05:32.255Z,11.82
2024-01-17T07:08:00.517Z,12.63
2024-01-17T07:10:28.661Z,12.07
2024-01-17T07:12:56.955Z,13.35
2024-01-17T07:15:25.087Z,12.40
2024-01-17T07:17:53.331Z,12.38
2024-01-17T07:20:22.815Z,11.65
2024-01-17T07:22:50.936Z,11.82
2024-01-17T07:25:19.091Z,12.70
2024-01-17T07:27:48.472Z,11.40
2024-01-17T07:30:17.072Z,12.70
2024-01-17T07:32:45.427Z,11.35
2024-01-17T07:35:15.250Z,11.27
2024-01-17T07:37:44.739Z,12.02
2024-01-17T07:40:13.305Z,12.13
2024-01-17T07:42:43.082Z,11.85
2024-01-17T07:45:11.891Z,12.00
2024-01-17T07:47:40.223Z,11.23
2024-01-17T07:50:10.842Z,12.63
2024-01-17T07:52:39.279Z,13.93
2024-01-17T07:55:09.700Z,12.82
2024-01-17T07:57:37.895Z,12.05
2024-01-17T08:00:07.994Z,12.23
2024-01-17T08:02:36.434Z,12.50
2024-01-17T08:05:04.748Z,11.57
2024-01-17T08:07:32.815Z,12.02
2024-01-17T08:10:02.234Z,11.98
2024-01-17T08:12:32.832Z,12.30
2024-01-17T08:15:00.944Z,12.38
2024-01-17T08:17:31.166Z,12.05
2024-01-17T08:20:00.790Z,11.35
2024-01-17T08:22:28.919Z,12.18
2024-01-17T08:24:57.032Z,11.77
2024-01-17T08:27:25.140Z,11.60
2024-01-17T08:29:54.703Z,12.02
2024-01-17T08:32:23.019Z,11.45
2024-01-17T08:34:51.321Z,10.82
2024-01-17T08:37:19.766Z,10.50
2024-01-17T08:39:48.037Z,10.27
2024-01-17T08:42:16.670Z,10.70
2024-01-17T08:44:45.564Z,11.38
2024-01-17T08:47:15.245Z,11.80
2024-01-17T08:49:43.723Z,10.73
2024-01-17T08:52:14.186Z,10.98
2024-01-17T08:54:42.391Z,11.70
2024-01-17T08:57:10.708Z,10.55
2024-01-17T08:59:39.162Z,11.27
2024-01-17T09:02:07.383Z,10.85
2024-01-17T09:04:37.112Z,11.23
2024-01-17T09:07:05.853Z,10.27
2024-01-17T09:09:34.501Z,10.90
2024-01-17T09:12:02.849Z,10.65
2024-01-17T09:14:31.526Z,11.15
2024-01-17T09:17:01.910Z,10.48
2024-01-17T09:19:33.046Z,11.10
2024-01-17T09:22:03.017Z,11.27
2024-01-17T09:24:31.334Z,11.07
2024-01-17T09:26:59.638Z,11.23
2024-01-17T09:29:30.826Z,11.48
2024-01-17T09:31:59.733Z,10.93
2024-01-17T09:34:27.969Z,11.43
2024-01-17T09:36:56.735Z,11.50
2024-01-17T09:39:26.203Z,11.52
2024-01-17T09:41:55.188Z,11.07
2024-01-17T09:44:23.635Z,11.63
2024-01-17T09:46:52.726Z,11.73
2024-01-17T09:49:21.897Z,10.93
2024-01-17T09:51:51.559Z,11.38
2024-01-17T09:54:20.549Z,11.25
2024-01-17T09:56:51.667Z,10.55
2024-01-17T09:59:29.001Z,11.70
2024-01-17T10:01:57.449Z,10.82
2024-01-17T10:04:33.255Z,10.00
2024-01-17T10:07:01.435Z,11.23
2024-01-17T10:09:30.017Z,11.15
2024-01-17T10:12:00.408Z,10.98
2024-01-17T10:14:28.726Z,10.60
2024-01-17T10:16:56.811Z,10.73
2024-01-17T10:19:28.884Z,10.10
2024-01-17T10:24:25.144Z,10.63
2024-01-17T10:26:53.489Z,10.25
2024-01-17T10:29:22.977Z,9.77
2024-01-17T10:31:51.254Z,10.30
2024-01-17T10:34:19.422Z,10.45
2024-01-17T10:36:48.056Z,9.40
2024-01-17T10:39:21.642Z,9.98
2024-01-17T10:41:51.374Z,9.88
2024-01-17T10:44:22.315Z,10.25
2024-01-17T10:46:52.070Z,10.52
2024-01-17T10:49:20.370Z,9.65
2024-01-17T10:51:54.978Z,9.93
2024-01-17T10:54:28.322Z,10.70
2024-01-17T10:56:57.484Z,10.02
2024-01-17T10:59:28.805Z,9.32
2024-01-17T11:01:57.021Z,10.37
2024-01-17T11:04:30.925Z,10.48
2024-01-17T11:07:00.285Z,9.65
2024-01-17T11:09:28.605Z,9.65
2024-01-17T11:11:59.345Z,9.43
2024-01-17T11:14:32.069Z,10.05
2024-01-17T11:17:05.173Z,9.30
2024-01-17T11:19:34.892Z,9.95
2024-01-17T11:22:03.620Z,9.68
2024-01-17T11:24:42.846Z,10.02
2024-01-17T11:27:18.392Z,10.10
2024-01-17T11:29:59.632Z,9.55
2024-01-17T11:32:43.856Z,9.90
2024-01-17T11:35:35.406Z,10.45
2024-01-17T11:38:03.895Z,9.65
2024-01-17T11:40:32.002Z,9.85
2024-01-17T11:43:00.225Z,9.23
2024-01-17T11:45:30.648Z,9.32
2024-01-17T11:47:58.864Z,9.75
2024-01-17T11:50:27.142Z,10.00
2024-01-17T11:52:55.457Z,9.70
2024-01-17T11:55:32.377Z,9.73
2024-01-17T11:58:02.723Z,10.00
2024-01-17T12:00:32.299Z,9.75
2024-01-17T12:03:01.246Z,9.70
2024-01-17T12:05:30.418Z,9.48
2024-01-17T12:07:58.733Z,9.60
2024-01-17T12:10:26.896Z,9.30
2024-01-17T12:12:59.137Z,9.90
2024-01-17T12:17:56.702Z,9.25
2024-01-17T12:20:24.847Z,9.30
2024-01-17T12:22:54.660Z,9.60
2024-01-17T12:25:24.057Z,9.15
2024-01-17T12:27:55.832Z,9.20
2024-01-17T12:30:24.089Z,9.57
2024-01-17T12:32:52.329Z,8.48
2024-01-17T12:35:21.801Z,9.60
2024-01-17T12:37:49.941Z,8.25
2024-01-17T12:40:18.327Z,8.68
2024-01-17T12:42:48.977Z,8.38
2024-01-17T12:45:17.996Z,8.70
2024-01-17T12:47:46.198Z,8.13
2024-01-17T12:50:15.896Z,8.02
2024-01-17T12:52:45.446Z,8.52
2024-01-17T12:55:13.967Z,9.18
2024-01-17T12:57:42.313Z,9.45
2024-01-17T13:00:13.948Z,9.07
2024-01-17T13:02:42.168Z,8.98
2024-01-17T13:05:11.076Z,8.98
2024-01-17T13:07:41.801Z,8.35
2024-01-17T13:10:18.489Z,9.18
2024-01-17T13:12:47.909Z,8.88
2024-01-17T13:15:17.069Z,9.07
2024-01-17T13:17:49.676Z,9.07
2024-01-17T13:20:22.946Z,9.98
2024-01-17T13:22:51.700Z,9.57
2024-01-17T13:25:23.052Z,9.82
2024-01-17T13:27:56.203Z,9.30
2024-01-17T13:30:24.335Z,9.07
2024-01-17T13:32:52.560Z,9.48
2024-01-17T13:35:20.927Z,9.82
2024-01-17T13:37:49.432Z,9.95
2024-01-17T13:40:19.552Z,9.65
2024-01-17T13:42:49.558Z,10.13
2024-01-17T13:45:18.057Z,10.32
2024-01-17T13:47:46.240Z,10.00
2024-01-17T13:50:23.369Z,10.15
2024-01-17T13:52:53.440Z,10.23
2024-01-17T13:55:23.900Z,9.75
2024-01-17T13:57:53.898Z,8.75
2024-01-17T14:00:24.200Z,9.73
2024-01-17T14:02:53.814Z,9.45
2024-01-17T14:05:22.093Z,9.60
2024-01-17T14:07:55.884Z,9.52
2024-01-17T14:10:24.772Z,9.05
2024-01-17T14:12:54.240Z,9.90
2024-01-17T14:15:24.679Z,9.48
2024-01-17T14:17:54.222Z,10.15
2024-01-17T14:20:22.788Z,10.23
2024-01-17T14:22:52.654Z,11.48
2024-01-17T14:25:20.747Z,10.75
2024-01-17T14:27:48.811Z,10.68
2024-01-17T14:30:18.463Z,11.43
2024-01-17T14:32:47.027Z,10.50
2024-01-17T14:35:15.634Z,10.82
2024-01-17T14:37:44.901Z,11.07
2024-01-17T14:40:14.584Z,10.85
2024-01-17T14:42:42.702Z,10.82
2024-01-17T14:45:12.330Z,10.50
2024-01-17T14:47:44.270Z,10.95
2024-01-17T14:50:15.109Z,11.02
2024-01-17T14:52:43.109Z,10.85
2024-01-17T14:55:12.476Z,10.40
2024-01-17T14:57:40.840Z,11.15
2024-01-17T15:00:19.383Z,11.00
2024-01-17T15:02:49.904Z,10.23
2024-01-17T15:05:19.137Z,10.02
2024-01-17T15:07:49.201Z,10.65
2024-01-17T15:10:19.637Z,10.43
2024-01-17T15:12:47.671Z,10.50
2024-01-17T15:15:16.299Z,11.13
2024-01-17T15:17:44.769Z,10.52
2024-01-17T15:20:24.008Z,10.68
2024-01-17T15:22:52.308Z,10.10
2024-01-17T15:25:20.348Z,10.00
2024-01-17T15:27:48.418Z,9.43
2024-01-17T15:30:17.115Z,9.30
2024-01-17T15:32:45.868Z,8.05
2024-01-17T15:35:14.090Z,8.32
2024-01-17T15:37:43.592Z,6.78
2024-01-17T15:40:13.172Z,7.07
2024-01-17T15:42:42.942Z,7.82
2024-01-17T15:45:11.683Z,7.57
2024-01-17T15:47:40.029Z,7.30
2024-01-17T15:50:09.566Z,8.30
2024-01-17T15:52:37.856Z,8.35
2024-01-17T15:55:08.621Z,9.40
2024-01-17T15:57:37.109Z,9.32
2024-01-17T16:00:10.411Z,9.48
2024-01-17T16:02:39.533Z,8.90
2024-01-17T16:05:08.654Z,9.85
2024-01-17T16:07:36.891Z,9.98
2024-01-17T16:10:05.721Z,9.65
2024-01-17T16:12:35.163Z,10.82
2024-01-17T16:15:03.452Z,11.27
2024-01-17T16:17:31.737Z,10.93
2024-01-17T16:20:00.275Z,10.63
2024-01-17T16:22:28.458Z,10.65
2024-01-17T16:24:56.543Z,11.20
2024-01-17T16:27:26.595Z,11.25
2024-01-17T16:29:56.064Z,11.20
2024-01-17T16:32:24.158Z,11.27
2024-01-17T16:34:52.779Z,10.55
2024-01-17T16:37:21.122Z,11.90
2024-01-17T16:39:50.311Z,11.35
2024-01-17T16:42:19.159Z,11.38
2024-01-17T16:44:47.375Z,11.05
2024-01-17T16:47:17.433Z,12.20
2024-01-17T16:49:45.800Z,11.77
2024-01-17T16:52:14.074Z,12.25
2024-01-17T16:54:42.318Z,12.32
2024-01-17T16:57:10.438Z,12.27
2024-01-17T16:59:38.953Z,12.93
2024-01-17T17:02:07.929Z,11.57
2024-01-17T17:04:37.480Z,12.27
2024-01-17T17:07:05.916Z,12.38
2024-01-17T17:09:34.454Z,12.50
2024-01-17T17:12:02.577Z,11.40
2024-01-17T17:14:31.815Z,12.07
2024-01-17T17:16:59.858Z,11.30
2024-01-17T17:19:30.847Z,10.90
2024-01-17T17:22:00.738Z,11.90
2024-01-17T17:24:28.837Z,11.48
2024-01-17T17:26:56.885Z,11.85
2024-01-17T17:29:25.017Z,10.27
2024-01-17T17:31:53.577Z,10.57
2024-01-17T17:34:21.891Z,10.52
2024-01-17T17:36:50.016Z,11.13
2024-01-17T17:39:19.531Z,10.70
2024-01-17T17:41:47.783Z,11.27
2024-01-17T17:44:15.860Z,11.15
2024-01-17T17:46:43.912Z,11.15
2024-01-17T17:49:12.515Z,11.18
2024-01-17T17:51:40.769Z,12.50
2024-01-17T17:54:08.875Z,11.35
2024-01-17T17:56:42.111Z,11.90
2024-01-17T17:59:10.371Z,12.00
2024-01-17T18:01:40.708Z,12.85
2024-01-17T18:04:08.936Z,13.63
2024-01-17T18:06:37.105Z,13.23
2024-01-17T18:09:05.340Z,12.77
2024-01-17T18:11:33.385Z,15.30
2024-01-17T18:14:02.765Z,24.25
2024-01-17T18:16:31.301Z,14.63
2024-01-17T18:18:59.475Z,15.60
2024-01-17T18:21:27.744Z,13.80
2024-01-17T18:23:56.540Z,15.25
2024-01-17T18:26:25.069Z,15.27
2024-01-17T18:28:53.096Z,14.85
2024-01-17T18:31:22.759Z,15.30
2024-01-17T18:33:51.399Z,16.38
2024-01-17T18:36:23.859Z,14.23
2024-01-17T18:38:51.955Z,14.70
2024-01-17T18:41:20.034Z,16.23
2024-01-17T18:43:48.327Z,15.60
2024-01-17T18:46:17.218Z,15.95
2024-01-17T18:48:46.740Z,15.32
2024-01-17T18:51:14.903Z,13.93
2024-01-17T18:53:43.140Z,13.95
2024-01-17T18:56:11.271Z,13.70
2024-01-17T18:58:39.318Z,14.07
2024-01-17T19:01:07.619Z,14.93
2024-01-17T19:03:35.894Z,14.38
2024-01-17T19:06:05.869Z,13.90
2024-01-17T19:08:34.196Z,14.98
2024-01-17T19:11:02.222Z,13.07
2024-01-17T19:13:30.258Z,13.25
2024-01-17T19:15:58.361Z,14.35
2024-01-17T19:18:26.524Z,14.93
2024-01-17T19:20:56.161Z,13.90
2024-01-17T19:23:25.709Z,14.82
2024-01-17T19:25:53.796Z,14.93
2024-01-17T19:28:21.884Z,13.90
2024-01-17T19:30:49.942Z,12.98
2024-01-17T19:33:18.468Z,13.88
2024-01-17T19:35:46.651Z,12.90
2024-01-17T19:38:15.080Z,15.05
2024-01-17T19:40:44.696Z,13.07
2024-01-17T19:43:12.896Z,12.63
2024-01-17T19:45:41.098Z,13.50
2024-01-17T19:48:09.351Z,14.48
2024-01-17T19:53:28.944Z,13.50
2024-01-17T19:55:58.399Z,13.35
2024-01-17T19:58:26.437Z,13.82
2024-01-17T20:00:54.473Z,14.57
2024-01-17T20:03:22.556Z,13.23
2024-01-17T20:05:50.607Z,14.50
2024-01-17T20:08:19.056Z,19.05
2024-01-17T20:10:47.305Z,15.75
2024-01-17T20:13:16.710Z,15.15
2024-01-17T20:15:45.468Z,14.93
2024-01-17T20:18:13.648Z,13.80
2024-01-17T20:20:41.982Z,12.93
2024-01-17T20:23:11.973Z,12.13
2024-01-17T20:25:40.005Z,13.32
2024-01-17T20:28:08.899Z,14.70
2024-01-17T20:30:38.578Z,12.70
2024-01-17T20:33:07.125Z,12.23
2024-01-17T20:35:35.297Z,12.05
2024-01-17T20:38:04.053Z,11.25
2024-01-17T20:40:32.710Z,11.82
2024-01-17T20:42:59.986Z,12.10
2024-01-17T20:45:28.121Z,12.43
2024-01-17T20:47:58.865Z,12.45
2024-01-17T20:50:26.912Z,11.85
2024-01-17T20:52:55.027Z,12.32
2024-01-17T20:55:23.066Z,11.73
2024-01-17T20:57:51.096Z,11.80
2024-01-17T21:00:19.766Z,11.52
2024-01-17T21:02:50.572Z,12.90
2024-01-17T21:05:20.000Z,10.65
2024-01-17T21:07:48.065Z,11.93
2024-01-17T21:10:16.255Z,13.70
2024-01-17T21:12:44.685Z,12.63
2024-01-17T21:15:12.703Z,10.75
2024-01-17T21:17:40.788Z,9.90
2024-01-17T21:20:10.298Z,10.52
2024-01-17T21:22:46.575Z,10.27
2024-01-17T21:25:16.784Z,9.98
2024-01-17T21:27:44.787Z,9.38
2024-01-17T21:30:15.357Z,9.15
2024-01-17T21:32:43.615Z,9.57
2024-01-17T21:35:11.978Z,9.50
2024-01-17T21:37:43.969Z,9.20
2024-01-17T21:40:13.430Z,9.40
2024-01-17T21:42:41.505Z,9.23
2024-01-17T21:45:11.782Z,9.85
2024-01-17T21:47:39.960Z,9.35
2024-01-17T21:50:08.598Z,9.60
2024-01-17T21:52:38.012Z,8.15
2024-01-17T21:55:10.973Z,8.25
2024-01-17T21:57:40.743Z,8.48
2024-01-17T22:00:10.684Z,8.32
2024-01-17T22:02:38.881Z,7.75
2024-01-17T22:05:07.064Z,7.75
2024-01-17T22:07:35.123Z,7.68
2024-01-17T22:10:04.736Z,8.27
2024-01-17T22:12:34.224Z,8.00
2024-01-17T22:15:02.365Z,7.47
2024-01-17T22:17:30.492Z,7.57
2024-01-17T22:19:58.623Z,7.63
2024-01-17T22:22:26.690Z,7.15
2024-01-17T22:24:55.627Z,7.82
2024-01-17T22:27:25.056Z,7.90
2024-01-17T22:29:54.761Z,7.95
2024-01-17T22:32:24.805Z,7.75
2024-01-17T22:34:53.693Z,7.20
2024-01-17T22:37:21.834Z,7.15
2024-01-17T22:39:50.217Z,6.47
2024-01-17T22:42:18.299Z,7.53
2024-01-17T22:44:46.852Z,7.20
2024-01-17T22:47:16.227Z,7.68
2024-01-17T22:49:44.252Z,7.70
2024-01-17T22:52:13.010Z,6.93
2024-01-17T22:54:41.205Z,7.15
2024-01-17T22:57:09.419Z,6.93
2024-01-17T22:59:39.770Z,7.15
2024-01-17T23:02:07.917Z,7.25
2024-01-17T23:04:38.326Z,7.32
2024-01-17T23:07:06.512Z,6.70
2024-01-17T23:09:34.691Z,7.15
2024-01-17T23:12:02.848Z,6.47
2024-01-17T23:14:30.939Z,6.18
2024-01-17T23:16:59.031Z,7.00
2024-01-17T23:19:27.326Z,6.28
2024-01-17T23:21:56.986Z,6.28
2024-01-17T23:24:25.435Z,6.50
2024-01-17T23:26:53.546Z,5.68
2024-01-17T23:29:21.832Z,5.90
2024-01-17T23:31:49.947Z,5.55
2024-01-17T23:34:18.159Z,5.50
2024-01-17T23:36:46.285Z,5.15
2024-01-17T23:39:15.749Z,5.43
2024-01-17T23:41:43.881Z,5.22
2024-01-17T23:44:11.956Z,5.40
2024-01-17T23:46:40.168Z,5.25
2024-01-17T23:49:09.472Z,4.70
2024-01-17T23:51:37.763Z,5.55
2024-01-17T23:54:06.053Z,5.45
2024-01-17T23:56:38.890Z,4.97
2024-01-17T23:59:08.143Z,5.05
